createdAt,value
2019-03-19T00:01:26.651Z,67.50
2019-03-19T00:03:52.874Z,67.60
2019-03-19T00:06:19.155Z,67.70
2019-03-19T00:08:54.638Z,67.60
2019-03-19T00:11:20.887Z,67.80
2019-03-19T00:13:47.093Z,67.80
2019-03-19T00:16:13.282Z,68.00
2019-03-19T00:18:39.515Z,67.80
2019-03-19T00:21:08.501Z,67.90
2019-03-19T00:23:34.786Z,67.90
2019-03-19T00:26:01.038Z,68.10
2019-03-19T00:28:27.321Z,68.00
2019-03-19T00:30:53.522Z,68.10
2019-03-19T00:33:19.719Z,68.10
2019-03-19T00:35:45.940Z,67.90
2019-03-19T00:38:12.148Z,67.90
2019-03-19T00:40:39.180Z,67.90
2019-03-19T00:43:05.399Z,68.10
2019-03-19T00:45:31.619Z,68.00
2019-03-19T00:47:57.841Z,68.10
2019-03-19T00:50:26.709Z,68.30
2019-03-19T00:52:52.895Z,68.30
2019-03-19T00:55:19.096Z,68.20
2019-03-19T00:57:45.367Z,68.30
2019-03-19T01:00:15.382Z,68.40
2019-03-19T01:02:44.458Z,68.30
2019-03-19T01:05:11.008Z,68.20
2019-03-19T01:07:39.954Z,68.20
2019-03-19T01:10:09.597Z,68.50
2019-03-19T01:12:45.179Z,68.70
2019-03-19T01:15:20.623Z,68.70
2019-03-19T01:17:46.820Z,68.80
2019-03-19T01:20:15.153Z,68.60
2019-03-19T01:22:41.445Z,68.70
2019-03-19T01:25:08.761Z,68.60
2019-03-19T01:27:36.140Z,68.50
2019-03-19T01:30:05.592Z,68.70
2019-03-19T01:32:31.924Z,68.70
2019-03-19T01:34:58.159Z,68.80
2019-03-19T01:37:24.351Z,68.90
2019-03-19T01:39:50.619Z,69.40
2019-03-19T01:42:16.847Z,68.60
2019-03-19T01:44:43.054Z,69.10
2019-03-19T01:47:09.251Z,69.10
2019-03-19T01:49:35.568Z,69.00
2019-03-19T01:52:01.776Z,69.00
2019-03-19T01:54:30.548Z,69.10
2019-03-19T01:56:56.871Z,69.00
2019-03-19T01:59:23.155Z,69.30
2019-03-19T02:01:49.368Z,69.20
2019-03-19T02:04:15.552Z,69.10
2019-03-19T02:06:41.874Z,69.20
2019-03-19T02:09:08.844Z,69.30
2019-03-19T02:11:35.044Z,69.20
2019-03-19T02:14:01.239Z,69.50
2019-03-19T02:16:27.407Z,69.40
2019-03-19T02:19:08.862Z,69.40
2019-03-19T02:21:35.077Z,69.30
2019-03-19T02:24:01.295Z,69.30
2019-03-19T02:26:27.519Z,69.50
2019-03-19T02:28:53.689Z,69.50
2019-03-19T02:31:20.015Z,69.60
2019-03-19T02:33:46.216Z,69.70
2019-03-19T02:36:12.464Z,69.70
2019-03-19T02:38:38.795Z,70.30
2019-03-19T02:41:07.941Z,69.70
2019-03-19T02:43:34.124Z,69.60
2019-03-19T02:46:00.393Z,69.70
2019-03-19T02:48:26.622Z,70.10
2019-03-19T02:50:52.828Z,70.00
2019-03-19T02:53:19.025Z,69.80
2019-03-19T02:55:45.242Z,69.70
2019-03-19T02:58:11.434Z,69.90
2019-03-19T03:00:37.722Z,70.00
2019-03-19T03:03:03.887Z,69.80
2019-03-19T03:05:30.229Z,69.80
2019-03-19T03:07:56.417Z,69.90
2019-03-19T03:10:22.622Z,69.80
2019-03-19T03:12:48.813Z,69.90
2019-03-19T03:15:16.127Z,69.90
2019-03-19T03:17:42.430Z,70.10
2019-03-19T03:20:15.372Z,70.00
2019-03-19T03:22:44.287Z,70.00
2019-03-19T03:25:14.407Z,70.30
2019-03-19T03:27:43.419Z,70.40
2019-03-19T03:30:15.425Z,70.20
2019-03-19T03:32:41.734Z,70.40
2019-03-19T03:35:09.630Z,70.50
2019-03-19T03:37:38.483Z,70.50
2019-03-19T03:40:10.634Z,70.40
2019-03-19T03:42:36.846Z,70.70
2019-03-19T03:45:06.138Z,70.80
2019-03-19T03:47:32.440Z,70.60
2019-03-19T03:49:58.700Z,70.40
2019-03-19T03:52:33.695Z,70.30
2019-03-19T03:54:59.883Z,70.50
2019-03-19T03:57:26.072Z,70.60
2019-03-19T03:59:52.527Z,70.40
2019-03-19T04:02:18.775Z,70.50
2019-03-19T04:05:05.576Z,70.70
2019-03-19T04:07:31.769Z,70.60
2019-03-19T04:09:57.958Z,70.50
2019-03-19T04:12:24.226Z,70.60
2019-03-19T04:14:50.493Z,70.60
2019-03-19T04:17:16.729Z,70.70
2019-03-19T04:19:46.070Z,70.60
2019-03-19T04:22:16.013Z,70.60
2019-03-19T04:24:45.293Z,70.90
2019-03-19T04:27:16.457Z,70.90
2019-03-19T04:29:39.599Z,70.90
2019-03-19T04:32:05.943Z,70.90
2019-03-19T04:34:32.120Z,70.80
2019-03-19T04:36:58.451Z,70.90
2019-03-19T04:39:24.608Z,70.60
2019-03-19T04:41:50.784Z,70.70
2019-03-19T04:44:19.787Z,70.80
2019-03-19T04:46:46.095Z,70.80
2019-03-19T04:49:12.256Z,70.80
2019-03-19T04:51:38.468Z,70.90
2019-03-19T04:54:04.698Z,70.80
2019-03-19T04:56:30.884Z,71.00
2019-03-19T04:58:57.092Z,70.90
2019-03-19T05:01:23.285Z,71.00
2019-03-19T05:03:49.554Z,71.10
2019-03-19T05:06:15.800Z,71.00
2019-03-19T05:08:41.996Z,71.10
2019-03-19T05:11:10.778Z,71.20
2019-03-19T05:13:36.983Z,71.30
2019-03-19T05:16:03.201Z,71.40
2019-03-19T05:18:31.243Z,71.90
2019-03-19T05:20:57.598Z,71.10
2019-03-19T05:23:23.807Z,71.00
2019-03-19T05:25:50.014Z,70.90
2019-03-19T05:28:16.213Z,71.00
2019-03-19T05:30:42.396Z,71.00
2019-03-19T05:33:08.685Z,71.10
2019-03-19T05:35:34.982Z,71.00
2019-03-19T05:38:01.199Z,71.00
2019-03-19T05:40:30.207Z,71.20
2019-03-19T05:42:56.553Z,71.40
2019-03-19T05:45:22.760Z,71.20
2019-03-19T05:47:49.086Z,71.20
2019-03-19T05:50:18.088Z,71.30
2019-03-19T05:52:44.266Z,71.40
2019-03-19T05:55:10.742Z,71.40
2019-03-19T05:57:48.412Z,71.20
2019-03-19T06:00:25.997Z,71.20
2019-03-19T06:02:52.191Z,72.00
2019-03-19T06:05:20.896Z,71.40
2019-03-19T06:07:52.558Z,71.60
2019-03-19T06:10:18.864Z,71.50
2019-03-19T06:12:45.055Z,71.50
2019-03-19T06:15:13.740Z,71.70
2019-03-19T06:17:39.957Z,71.50
2019-03-19T06:20:16.649Z,71.60
2019-03-19T06:23:01.584Z,71.60
2019-03-19T06:25:27.800Z,71.80
2019-03-19T06:28:00.487Z,71.70
2019-03-19T06:30:40.855Z,71.80
2019-03-19T06:33:07.141Z,72.10
2019-03-19T06:35:33.414Z,72.40
2019-03-19T06:37:59.643Z,72.60
2019-03-19T06:40:25.910Z,72.90
2019-03-19T06:42:52.116Z,72.80
2019-03-19T06:45:19.063Z,72.90
2019-03-19T06:47:45.568Z,72.80
2019-03-19T06:50:13.347Z,72.70
2019-03-19T06:52:51.785Z,72.80
2019-03-19T06:55:18.673Z,73.20
2019-03-19T06:57:44.915Z,73.40
2019-03-19T07:00:21.641Z,73.30
2019-03-19T07:02:50.911Z,73.10
2019-03-19T07:05:35.374Z,73.20
2019-03-19T07:08:01.703Z,73.30
2019-03-19T07:10:27.904Z,73.30
2019-03-19T07:12:54.119Z,73.40
2019-03-19T07:15:22.462Z,73.50
2019-03-19T07:17:48.911Z,73.60
2019-03-19T07:20:25.190Z,73.80
2019-03-19T07:23:10.183Z,73.90
2019-03-19T07:25:36.541Z,74.60
2019-03-19T07:28:05.534Z,74.00
2019-03-19T07:30:31.735Z,73.90
2019-03-19T07:32:57.963Z,74.00
2019-03-19T07:35:24.286Z,74.00
2019-03-19T07:37:53.360Z,74.10
2019-03-19T07:40:19.532Z,74.10
2019-03-19T07:42:45.838Z,74.00
2019-03-19T07:45:22.051Z,73.90
2019-03-19T07:47:50.889Z,73.90
2019-03-19T07:50:35.398Z,73.90
2019-03-19T07:53:01.583Z,74.00
2019-03-19T07:55:27.771Z,74.10
2019-03-19T07:57:53.964Z,74.00
2019-03-19T08:00:20.975Z,74.20
2019-03-19T08:02:47.186Z,74.10
2019-03-19T08:05:13.582Z,74.10
2019-03-19T08:07:39.784Z,74.30
2019-03-19T08:10:16.980Z,74.40
2019-03-19T08:12:43.147Z,74.40
2019-03-19T08:15:16.903Z,74.50
2019-03-19T08:17:43.304Z,74.70
2019-03-19T08:20:13.437Z,74.70
2019-03-19T08:22:42.423Z,74.60
2019-03-19T08:25:09.995Z,74.70
2019-03-19T08:27:48.050Z,74.70
2019-03-19T08:30:19.702Z,74.80
2019-03-19T08:33:04.461Z,74.70
2019-03-19T08:35:30.744Z,74.60
2019-03-19T08:37:59.699Z,74.60
2019-03-19T08:40:26.088Z,74.80
2019-03-19T08:42:52.294Z,74.90
2019-03-19T08:45:20.006Z,74.80
2019-03-19T08:47:48.845Z,74.80
2019-03-19T08:50:16.210Z,74.80
2019-03-19T08:52:42.412Z,74.80
2019-03-19T08:55:08.687Z,74.60
2019-03-19T08:57:53.382Z,74.70
2019-03-19T09:00:20.803Z,75.30
2019-03-19T09:02:49.882Z,74.60
2019-03-19T09:05:16.155Z,74.60
2019-03-19T09:07:42.467Z,74.60
2019-03-19T09:10:27.213Z,74.80
2019-03-19T09:12:53.377Z,75.00
2019-03-19T09:15:24.766Z,74.80
2019-03-19T09:17:53.794Z,74.80
2019-03-19T09:20:20.275Z,74.50
2019-03-19T09:22:46.575Z,74.30
2019-03-19T09:25:15.688Z,74.30
2019-03-19T09:28:00.787Z,73.80
2019-03-19T09:30:27.011Z,73.50
2019-03-19T09:32:53.203Z,73.50
2019-03-19T09:35:19.521Z,73.20
2019-03-19T09:38:04.381Z,72.80
2019-03-19T09:40:30.631Z,72.10
2019-03-19T09:42:56.864Z,71.70
2019-03-19T09:45:26.057Z,71.40
2019-03-19T09:47:55.176Z,72.40
2019-03-19T09:50:24.506Z,70.60
2019-03-19T09:52:52.827Z,69.70
2019-03-19T09:55:19.755Z,69.00
2019-03-19T09:57:46.038Z,68.90
2019-03-19T10:00:19.535Z,69.20
2019-03-19T10:02:45.858Z,69.50
2019-03-19T10:05:15.181Z,71.30
2019-03-19T10:08:00.256Z,72.50
2019-03-19T10:10:26.604Z,70.70
2019-03-19T10:12:55.594Z,68.80
2019-03-19T10:15:21.948Z,66.90
2019-03-19T10:17:50.788Z,66.40
2019-03-19T10:20:23.608Z,72.80
2019-03-19T10:22:56.086Z,73.10
2019-03-19T10:25:22.521Z,65.10
2019-03-19T10:27:48.826Z,58.90
2019-03-19T10:30:17.845Z,54.00
2019-03-19T10:32:44.261Z,52.90
2019-03-19T10:35:10.834Z,55.70
2019-03-19T10:37:55.565Z,56.60
2019-03-19T10:40:21.957Z,56.20
2019-03-19T10:43:06.715Z,54.70
2019-03-19T10:45:32.921Z,54.70
2019-03-19T10:47:59.118Z,57.40
2019-03-19T10:50:26.312Z,65.20
2019-03-19T10:52:52.516Z,67.20
2019-03-19T10:55:18.830Z,60.80
2019-03-19T10:57:47.729Z,52.40
2019-03-19T11:00:21.544Z,48.60
2019-03-19T11:02:48.076Z,48.40
2019-03-19T11:05:17.987Z,48.50
2019-03-19T11:07:44.188Z,54.40
2019-03-19T11:10:12.834Z,61.00
2019-03-19T11:12:42.064Z,59.90
2019-03-19T11:15:14.378Z,53.00
2019-03-19T11:17:59.166Z,45.00
2019-03-19T11:20:25.584Z,42.10
2019-03-19T11:22:52.103Z,42.60
2019-03-19T11:25:25.431Z,45.00
2019-03-19T11:28:10.288Z,46.40
2019-03-19T11:30:36.670Z,45.60
2019-03-19T11:33:03.316Z,46.10
2019-03-19T11:35:32.379Z,46.80
2019-03-19T11:38:01.227Z,47.30
2019-03-19T11:40:27.488Z,47.00
2019-03-19T11:42:54.066Z,46.90
2019-03-19T11:45:23.702Z,49.00
2019-03-19T11:47:50.316Z,49.50
2019-03-19T11:50:18.629Z,48.20
2019-03-19T11:52:44.867Z,48.10
2019-03-19T11:55:12.706Z,48.30
2019-03-19T11:57:38.998Z,47.20
2019-03-19T12:00:11.900Z,47.30
2019-03-19T12:02:38.418Z,47.80
2019-03-19T12:05:06.823Z,48.80
2019-03-19T12:07:52.065Z,49.00
2019-03-19T12:10:20.781Z,49.00
2019-03-19T12:12:47.008Z,49.10
2019-03-19T12:15:13.199Z,49.70
2019-03-19T12:17:45.842Z,49.10
2019-03-19T12:20:13.176Z,48.70
2019-03-19T12:22:40.100Z,49.30
2019-03-19T12:25:08.063Z,49.70
2019-03-19T12:27:37.017Z,49.50
2019-03-19T12:30:09.158Z,49.10
2019-03-19T12:32:35.701Z,49.00
2019-03-19T12:35:07.654Z,48.90
2019-03-19T12:37:34.258Z,48.90
2019-03-19T12:40:12.178Z,49.50
2019-03-19T12:42:38.521Z,49.50
2019-03-19T12:45:08.015Z,48.80
2019-03-19T12:47:37.154Z,48.70
2019-03-19T12:50:25.041Z,48.50
2019-03-19T12:52:51.497Z,48.00
2019-03-19T12:55:17.984Z,48.10
2019-03-19T12:57:46.987Z,47.80
2019-03-19T13:00:33.585Z,48.70
2019-03-19T13:02:52.628Z,47.80
2019-03-19T13:05:22.635Z,48.00
2019-03-19T13:08:04.307Z,47.40
2019-03-19T13:10:30.539Z,47.30
2019-03-19T13:12:56.813Z,47.10
2019-03-19T13:15:23.006Z,47.50
2019-03-19T13:17:52.362Z,47.00
2019-03-19T13:20:36.951Z,48.50
2019-03-19T13:23:03.506Z,48.80
2019-03-19T13:25:48.075Z,48.20
2019-03-19T13:28:14.775Z,49.20
2019-03-19T13:30:59.684Z,49.30
2019-03-19T13:33:25.889Z,47.90
2019-03-19T13:35:52.135Z,45.30
2019-03-19T13:38:18.332Z,45.60
2019-03-19T13:40:44.548Z,48.10
2019-03-19T13:43:10.827Z,49.60
2019-03-19T13:45:37.102Z,50.20
2019-03-19T13:48:03.634Z,48.80
2019-03-19T13:50:32.535Z,45.30
2019-03-19T13:53:14.093Z,43.40
2019-03-19T13:55:59.236Z,43.40
2019-03-19T13:58:28.075Z,41.70
2019-03-19T14:00:55.826Z,40.30
2019-03-19T14:03:25.190Z,38.40
2019-03-19T14:05:54.129Z,40.10
2019-03-19T14:08:20.387Z,39.00
2019-03-19T14:10:46.605Z,40.00
2019-03-19T14:13:12.904Z,39.70
2019-03-19T14:15:41.911Z,38.60
2019-03-19T14:18:10.940Z,37.40
2019-03-19T14:20:39.928Z,34.70
2019-03-19T14:23:06.146Z,34.00
2019-03-19T14:25:32.337Z,34.10
2019-03-19T14:27:58.606Z,34.70
2019-03-19T14:30:27.671Z,34.40
2019-03-19T14:33:03.520Z,35.30
2019-03-19T14:35:37.197Z,35.50
2019-03-19T14:37:57.973Z,37.70
2019-03-19T14:40:25.399Z,37.30
2019-03-19T14:42:51.755Z,36.70
2019-03-19T14:45:18.271Z,37.50
2019-03-19T14:48:05.046Z,37.00
2019-03-19T14:50:31.489Z,37.30
2019-03-19T14:52:57.707Z,37.10
2019-03-19T14:55:24.016Z,37.50
2019-03-19T14:57:51.082Z,37.80
2019-03-19T15:00:21.543Z,37.90
2019-03-19T15:02:47.881Z,38.10
2019-03-19T15:05:14.208Z,38.50
2019-03-19T15:07:40.749Z,38.90
2019-03-19T15:10:25.824Z,39.20
2019-03-19T15:12:52.283Z,39.20
2019-03-19T15:15:21.499Z,39.10
2019-03-19T15:17:50.388Z,40.20
2019-03-19T15:20:23.614Z,40.90
2019-03-19T15:22:49.853Z,41.10
2019-03-19T15:25:16.325Z,40.90
2019-03-19T15:27:42.628Z,41.10
2019-03-19T15:30:14.427Z,40.50
2019-03-19T15:32:40.784Z,40.60
2019-03-19T15:35:09.122Z,40.90
2019-03-19T15:37:37.984Z,41.10
2019-03-19T15:40:10.313Z,41.30
2019-03-19T15:42:36.528Z,41.50
2019-03-19T15:45:06.099Z,41.40
2019-03-19T15:47:35.006Z,41.80
2019-03-19T15:50:09.798Z,41.50
2019-03-19T15:52:36.078Z,41.40
2019-03-19T15:55:04.143Z,41.50
2019-03-19T15:57:30.384Z,41.60
2019-03-19T15:59:56.686Z,41.80
2019-03-19T16:02:41.657Z,41.80
2019-03-19T16:05:11.843Z,41.90
2019-03-19T16:07:38.097Z,42.20
2019-03-19T16:10:10.272Z,42.40
2019-03-19T16:12:55.297Z,42.70
2019-03-19T16:17:58.729Z,42.70
2019-03-19T16:20:25.015Z,43.40
2019-03-19T16:22:51.285Z,43.60
2019-03-19T16:25:17.694Z,44.20
2019-03-19T16:27:43.987Z,44.40
2019-03-19T16:30:13.773Z,44.70
2019-03-19T16:32:40.217Z,45.30
2019-03-19T16:35:07.770Z,45.70
2019-03-19T16:37:52.725Z,45.70
2019-03-19T16:40:23.058Z,45.70
2019-03-19T16:42:49.358Z,45.60
2019-03-19T16:45:34.488Z,45.40
2019-03-19T16:48:03.774Z,45.40
2019-03-19T16:50:32.963Z,45.50
2019-03-19T16:53:18.072Z,45.60
2019-03-19T16:55:48.251Z,45.90
2019-03-19T16:58:14.491Z,46.40
2019-03-19T17:00:40.801Z,46.60
2019-03-19T17:03:07.033Z,46.90
2019-03-19T17:05:33.259Z,47.40
2019-03-19T17:07:59.491Z,47.50
2019-03-19T17:10:29.792Z,47.80
2019-03-19T17:13:14.910Z,48.10
2019-03-19T17:16:00.212Z,48.50
2019-03-19T17:18:45.154Z,48.70
2019-03-19T17:21:11.488Z,48.90
2019-03-19T17:23:37.829Z,49.30
2019-03-19T17:26:10.388Z,49.70
2019-03-19T17:28:36.610Z,50.10
2019-03-19T17:31:02.896Z,50.40
2019-03-19T17:33:29.123Z,50.50
2019-03-19T17:35:55.420Z,50.80
2019-03-19T17:38:21.884Z,51.10
2019-03-19T17:40:48.245Z,51.30
2019-03-19T17:43:14.671Z,51.40
2019-03-19T17:45:40.860Z,52.40
2019-03-19T17:48:16.217Z,52.70
2019-03-19T17:50:39.984Z,53.10
2019-03-19T17:53:06.366Z,53.00
2019-03-19T17:55:32.703Z,53.10
2019-03-19T17:58:01.778Z,53.40
2019-03-19T18:00:32.591Z,53.50
2019-03-19T18:03:01.475Z,53.60
2019-03-19T18:05:27.691Z,53.80
2019-03-19T18:07:53.930Z,54.20
2019-03-19T18:10:20.532Z,54.40
2019-03-19T18:13:06.609Z,54.30
2019-03-19T18:15:51.198Z,54.60
2019-03-19T18:18:17.398Z,54.60
2019-03-19T18:20:43.691Z,54.80
2019-03-19T18:23:09.889Z,54.90
2019-03-19T18:25:36.082Z,55.00
2019-03-19T18:28:02.279Z,55.00
2019-03-19T18:30:31.065Z,55.30
2019-03-19T18:32:57.308Z,55.40
2019-03-19T18:35:23.693Z,55.70
2019-03-19T18:37:52.679Z,55.60
2019-03-19T18:40:19.531Z,55.80
2019-03-19T18:42:58.043Z,55.90
2019-03-19T18:45:24.299Z,56.10
2019-03-19T18:47:50.489Z,55.90
2019-03-19T18:50:20.608Z,56.10
2019-03-19T18:52:47.085Z,56.20
2019-03-19T18:55:13.385Z,56.30
2019-03-19T18:57:41.551Z,56.50
2019-03-19T19:00:23.253Z,56.60
2019-03-19T19:02:52.055Z,56.80
2019-03-19T19:05:22.207Z,57.10
2019-03-19T19:07:48.588Z,57.00
2019-03-19T19:10:15.849Z,57.10
2019-03-19T19:12:42.137Z,57.30
2019-03-19T19:15:12.124Z,57.30
2019-03-19T19:17:38.404Z,57.60
2019-03-19T19:20:08.359Z,57.70
2019-03-19T19:22:34.578Z,57.80
2019-03-19T19:25:00.850Z,57.80
2019-03-19T19:27:27.175Z,58.00
2019-03-19T19:29:53.392Z,58.10
2019-03-19T19:32:19.673Z,58.20
2019-03-19T19:34:45.940Z,58.20
2019-03-19T19:37:12.233Z,58.40
2019-03-19T19:39:38.596Z,58.40
2019-03-19T19:42:23.555Z,58.60
2019-03-19T19:44:49.778Z,58.50
2019-03-19T19:47:16.232Z,58.60
2019-03-19T19:49:54.840Z,58.70
2019-03-19T19:52:21.038Z,59.10
2019-03-19T19:54:47.287Z,59.00
2019-03-19T19:57:13.547Z,59.10
2019-03-19T19:59:39.790Z,59.30
2019-03-19T20:02:06.039Z,59.40
2019-03-19T20:04:32.262Z,59.30
2019-03-19T20:06:58.457Z,59.40
2019-03-19T20:09:27.344Z,59.50
2019-03-19T20:11:53.542Z,59.70
2019-03-19T20:14:19.727Z,59.70
2019-03-19T20:16:45.943Z,59.80
2019-03-19T20:19:12.184Z,59.90
2019-03-19T20:21:38.474Z,60.10
2019-03-19T20:24:04.802Z,60.20
2019-03-19T20:26:50.024Z,60.10
2019-03-19T20:29:18.746Z,60.00
2019-03-19T20:31:44.946Z,60.20
2019-03-19T20:34:11.207Z,60.40
2019-03-19T20:36:37.407Z,60.30
2019-03-19T20:39:05.159Z,60.50
2019-03-19T20:41:31.367Z,60.60
2019-03-19T20:43:57.729Z,60.60
2019-03-19T20:46:42.439Z,60.60
2019-03-19T20:49:08.766Z,60.90
2019-03-19T20:51:37.827Z,60.80
2019-03-19T20:54:04.889Z,60.80
2019-03-19T20:56:31.205Z,60.90
2019-03-19T20:58:57.274Z,60.90
2019-03-19T21:01:23.366Z,61.00
2019-03-19T21:04:07.582Z,61.10
2019-03-19T21:06:33.918Z,61.30
2019-03-19T21:08:59.976Z,61.20
2019-03-19T21:11:44.373Z,61.50
2019-03-19T21:14:28.872Z,61.60
2019-03-19T21:16:57.300Z,61.60
2019-03-19T21:19:41.572Z,61.80
2019-03-19T21:22:07.725Z,61.90
2019-03-19T21:24:33.786Z,62.00
2019-03-19T21:26:59.877Z,62.20
2019-03-19T21:29:25.945Z,62.30
2019-03-19T21:31:52.106Z,62.40
2019-03-19T21:34:18.262Z,62.50
2019-03-19T21:36:44.327Z,62.60
2019-03-19T21:39:10.374Z,62.80
2019-03-19T21:41:36.725Z,63.00
2019-03-19T21:44:05.389Z,62.90
2019-03-19T21:46:31.538Z,63.00
2019-03-19T21:49:00.681Z,63.00
2019-03-19T21:51:27.017Z,63.10
2019-03-19T21:54:05.690Z,63.00
2019-03-19T21:56:34.312Z,63.30
2019-03-19T21:59:00.454Z,63.20
2019-03-19T22:01:26.516Z,63.80
2019-03-19T22:04:02.606Z,63.30
2019-03-19T22:06:20.680Z,63.20
2019-03-19T22:08:46.716Z,63.40
2019-03-19T22:11:31.080Z,64.20
2019-03-19T22:13:57.226Z,62.80
2019-03-19T22:16:23.270Z,63.30
2019-03-19T22:18:49.431Z,63.40
2019-03-19T22:21:24.831Z,63.40
2019-03-19T22:23:53.681Z,63.70
2019-03-19T22:26:22.495Z,63.80
2019-03-19T22:28:51.203Z,63.60
2019-03-19T22:31:17.314Z,63.70
2019-03-19T22:33:43.355Z,63.80
2019-03-19T22:36:11.751Z,63.60
2019-03-19T22:38:40.048Z,63.70
2019-03-19T22:41:06.098Z,63.70
2019-03-19T22:43:32.164Z,63.90
2019-03-19T22:46:00.891Z,63.80
2019-03-19T22:48:27.004Z,63.80
2019-03-19T22:50:53.067Z,63.80
2019-03-19T22:53:21.906Z,63.90
2019-03-19T22:55:50.586Z,63.90
2019-03-19T22:58:19.391Z,63.90
2019-03-19T23:00:46.035Z,64.00
2019-03-19T23:03:12.109Z,64.10
2019-03-19T23:05:41.441Z,64.30
2019-03-19T23:08:07.530Z,64.20
2019-03-19T23:10:39.777Z,64.30
2019-03-19T23:13:05.915Z,64.40
2019-03-19T23:15:50.354Z,64.40
2019-03-19T23:18:16.488Z,64.50
2019-03-19T23:20:54.804Z,64.60
2019-03-19T23:23:20.841Z,64.70
2019-03-19T23:25:46.915Z,64.60
2019-03-19T23:28:13.069Z,64.60
2019-03-19T23:30:39.156Z,64.80
2019-03-19T23:33:07.934Z,64.80
2019-03-19T23:35:52.328Z,64.80
2019-03-19T23:38:21.108Z,64.80
2019-03-19T23:40:47.189Z,64.80
2019-03-19T23:43:13.242Z,64.90
2019-03-19T23:45:41.954Z,65.10
2019-03-19T23:48:08.032Z,65.20
2019-03-19T23:50:34.113Z,65.30
2019-03-19T23:53:03.087Z,65.30
2019-03-19T23:55:29.148Z,65.20
2019-03-19T23:57:55.257Z,65.30
